HECA/CAI METAR and TAF weather

Enter ICAO airport designator
Station Type Date Time Source
HECA METAR 2022/11/30 16:30 UTC NOAA

HECA 301630Z 04005KT 6000 NSC 22/09 Q1016 NOSIG


Station Type Date Time Source
HECA Decoded METAR 2022/11/30 16:30 UTC NOAA

Cairo Airport, Egypt (HECA) 30-08N 031-24E 74M
Nov 30, 2022 - 11:30 AM EST / 2022.11.30 1630 UTC
Wind: from the NE (040 degrees) at 6 MPH (5 KT):0
Visibility: 3 mile(s):0
Temperature: 71 F (22 C)
Dew Point: 48 F (9 C)
Relative Humidity: 43%
Pressure (altimeter): 30.00 in. Hg (1016 hPa)
ob: HECA 301630Z 04005KT 6000 NSC 22/09 Q1016 NOSIG
cycle: 16

Station Type Date Time Source
HECA TAF 2022/11/30 12:39 UTC NOAA

TAF HECA 301100Z 3012/0118 03008KT CAVOK
TEMPO 3018/0112 VRB02KT 4000 HZ NSC

Example: see airport list